Hovedside
METAR-TAF:

METAR-TAF

Lufthavner :

Jaipur, India

breddegrad: 26-49N, lengdegrad: 075-48E, høyde over havet: 385 m

Gjeldene værobservasjon

Denne rapporten ble laget for 33 minutter siden, klokken 03:00 UTC
Vind 12 kt fra Vest
Temperatur 35°C
Luftfuktighet 50%
Trykk 1001 hPa
Sikt: 4000 m
dis,

METAR: VIJP 200300Z 26012KT 4000 HZ NSC 35/23 Q1001 NOSIG

Tid: 09:03 (03:33 UTC)

Varsel

Denne rapporten ble laget for 1 time og 33 minutter siden, klokken 02:00 UTC
Varsel gyldig fra 20. klokken 03 UTC til 20. klokken 12 UTC
Vind 11 kt fra Vest
Sikt: 4000 m
dis
Blir
fra 20. klokken 05 UTC til 20. klokken 07 UTC
Vind 8 kt fra Vest-sørvest
Sikt: 5000 m
Spredte skyer i en høyde av 3000 ft
Brutte skyer i en høyde av 10000 ft
dis,

TAF: VIJP 200200Z 2003/2012 27011KT 4000 HZ NSC BECMG 2005/2007 24008KT 5000 HZ SCT030 BKN100

Værobservasjoner og værvarsel for over 4000 flyplasser (METAR- og TAF-rapporter).

Tilgjengelige stasjoner er representert av de røde og gule prikkene på kartet.

Hold musepekeren over prikken for å se navnet på stasjonen.

Klikk så for å se værobservasjoner og -varsler.

For å forandre kartet kan du klikke på den grønne knappen med svart kryss for å zoome inn, på den grønne knappen med strek for å zoome ut, eller på de grønne pilene for å se tilstøtende kart.


METAR-TAF: